sensor_id;sensor_type;location;lat;lon;timestamp;temperature;humidity
27759;DHT22;15148;48.972;12.794;2023-02-22T00:02:25;4.40;99.90
27759;DHT22;15148;48.972;12.794;2023-02-22T00:07:29;4.30;99.90
27759;DHT22;15148;48.972;12.794;2023-02-22T00:12:31;4.10;99.90
27759;DHT22;15148;48.972;12.794;2023-02-22T00:17:33;4.10;99.90
27759;DHT22;15148;48.972;12.794;2023-02-22T00:22:35;4.10;99.90
27759;DHT22;15148;48.972;12.794;2023-02-22T00:27:37;4.10;99.90
27759;DHT22;15148;48.972;12.794;2023-02-22T00:32:39;4.10;99.90
27759;DHT22;15148;48.972;12.794;2023-02-22T00:37:41;4.00;99.90
27759;DHT22;15148;48.972;12.794;2023-02-22T00:42:42;4.00;99.90
27759;DHT22;15148;48.972;12.794;2023-02-22T00:47:47;3.90;99.90
27759;DHT22;15148;48.972;12.794;2023-02-22T00:52:50;3.90;99.90
27759;DHT22;15148;48.972;12.794;2023-02-22T00:57:52;3.80;99.90
27759;DHT22;15148;48.972;12.794;2023-02-22T01:02:55;3.70;99.90
27759;DHT22;15148;48.972;12.794;2023-02-22T01:07:58;3.70;99.90
27759;DHT22;15148;48.972;12.794;2023-02-22T01:13:01;3.70;99.90
27759;DHT22;15148;48.972;12.794;2023-02-22T01:18:09;3.60;99.90
27759;DHT22;15148;48.972;12.794;2023-02-22T01:23:13;3.60;99.90
27759;DHT22;15148;48.972;12.794;2023-02-22T01:28:14;3.40;99.90
27759;DHT22;15148;48.972;12.794;2023-02-22T01:33:16;3.40;99.90
27759;DHT22;15148;48.972;12.794;2023-02-22T01:38:18;3.40;99.90
27759;DHT22;15148;48.972;12.794;2023-02-22T01:43:29;3.40;99.90
27759;DHT22;15148;48.972;12.794;2023-02-22T01:48:41;3.30;99.90
27759;DHT22;15148;48.972;12.794;2023-02-22T01:53:50;3.20;99.90
27759;DHT22;15148;48.972;12.794;2023-02-22T01:58:57;3.20;99.90
27759;DHT22;15148;48.972;12.794;2023-02-22T02:04:03;3.20;99.90
27759;DHT22;15148;48.972;12.794;2023-02-22T02:09:20;3.20;99.90
27759;DHT22;15148;48.972;12.794;2023-02-22T02:14:23;3.20;99.90
27759;DHT22;15148;48.972;12.794;2023-02-22T02:30:48;3.00;99.90
27759;DHT22;15148;48.972;12.794;2023-02-22T02:41:20;3.00;99.90
27759;DHT22;15148;48.972;12.794;2023-02-22T02:46:40;3.00;99.90
27759;DHT22;15148;48.972;12.794;2023-02-22T02:51:50;3.00;99.90
27759;DHT22;15148;48.972;12.794;2023-02-22T02:56:56;3.00;99.90
27759;DHT22;15148;48.972;12.794;2023-02-22T03:02:03;2.90;99.90
27759;DHT22;15148;48.972;12.794;2023-02-22T03:13:29;2.80;99.90
27759;DHT22;15148;48.972;12.794;2023-02-22T03:18:43;2.80;99.90
27759;DHT22;15148;48.972;12.794;2023-02-22T03:29:13;2.70;99.90
27759;DHT22;15148;48.972;12.794;2023-02-22T03:34:22;2.70;99.90
27759;DHT22;15148;48.972;12.794;2023-02-22T03:39:28;2.70;99.90
27759;DHT22;15148;48.972;12.794;2023-02-22T03:44:35;2.70;99.90
27759;DHT22;15148;48.972;12.794;2023-02-22T03:49:48;2.70;99.90
27759;DHT22;15148;48.972;12.794;2023-02-22T03:54:53;2.60;99.90
27759;DHT22;15148;48.972;12.794;2023-02-22T03:59:55;2.60;99.90
27759;DHT22;15148;48.972;12.794;2023-02-22T04:04:57;2.70;99.90
27759;DHT22;15148;48.972;12.794;2023-02-22T04:09:59;2.70;99.90
27759;DHT22;15148;48.972;12.794;2023-02-22T04:15:06;2.70;99.90
27759;DHT22;15148;48.972;12.794;2023-02-22T04:20:09;2.70;99.90
27759;DHT22;15148;48.972;12.794;2023-02-22T04:25:20;2.80;99.90
27759;DHT22;15148;48.972;12.794;2023-02-22T04:30:23;2.90;99.90
27759;DHT22;15148;48.972;12.794;2023-02-22T04:35:26;2.80;99.90
27759;DHT22;15148;48.972;12.794;2023-02-22T04:40:29;2.60;99.90
27759;DHT22;15148;48.972;12.794;2023-02-22T04:45:31;2.60;99.90
27759;DHT22;15148;48.972;12.794;2023-02-22T04:50:33;2.60;99.90
27759;DHT22;15148;48.972;12.794;2023-02-22T04:55:36;2.60;99.90
27759;DHT22;15148;48.972;12.794;2023-02-22T05:00:38;2.60;99.90
27759;DHT22;15148;48.972;12.794;2023-02-22T05:05:41;2.50;99.90
27759;DHT22;15148;48.972;12.794;2023-02-22T05:10:43;2.50;99.90
27759;DHT22;15148;48.972;12.794;2023-02-22T05:15:45;2.50;99.90
27759;DHT22;15148;48.972;12.794;2023-02-22T05:20:47;2.50;99.90
27759;DHT22;15148;48.972;12.794;2023-02-22T05:25:48;2.50;99.90
27759;DHT22;15148;48.972;12.794;2023-02-22T05:30:50;2.50;99.90
27759;DHT22;15148;48.972;12.794;2023-02-22T05:35:52;2.50;99.90
27759;DHT22;15148;48.972;12.794;2023-02-22T05:40:56;2.40;99.90
27759;DHT22;15148;48.972;12.794;2023-02-22T05:45:58;2.50;99.90
27759;DHT22;15148;48.972;12.794;2023-02-22T05:51:00;2.50;99.90
27759;DHT22;15148;48.972;12.794;2023-02-22T05:56:02;2.40;99.90
27759;DHT22;15148;48.972;12.794;2023-02-22T06:01:04;2.50;99.90
27759;DHT22;15148;48.972;12.794;2023-02-22T06:06:06;2.50;99.90
27759;DHT22;15148;48.972;12.794;2023-02-22T06:11:08;2.40;99.90
27759;DHT22;15148;48.972;12.794;2023-02-22T06:16:10;2.40;99.90
27759;DHT22;15148;48.972;12.794;2023-02-22T06:21:12;2.30;99.90
27759;DHT22;15148;48.972;12.794;2023-02-22T06:26:17;2.40;99.90
27759;DHT22;15148;48.972;12.794;2023-02-22T06:31:19;2.40;99.90
27759;DHT22;15148;48.972;12.794;2023-02-22T06:36:21;2.30;99.90
27759;DHT22;15148;48.972;12.794;2023-02-22T06:41:23;2.40;99.90
27759;DHT22;15148;48.972;12.794;2023-02-22T06:46:25;2.40;99.90
27759;DHT22;15148;48.972;12.794;2023-02-22T06:51:27;2.60;99.90
27759;DHT22;15148;48.972;12.794;2023-02-22T06:56:29;2.70;99.90
27759;DHT22;15148;48.972;12.794;2023-02-22T07:01:31;2.70;99.90
27759;DHT22;15148;48.972;12.794;2023-02-22T07:06:33;2.90;99.90
27759;DHT22;15148;48.972;12.794;2023-02-22T07:11:37;3.20;99.90
27759;DHT22;15148;48.972;12.794;2023-02-22T07:16:40;3.30;99.90
27759;DHT22;15148;48.972;12.794;2023-02-22T07:21:41;3.40;99.90
27759;DHT22;15148;48.972;12.794;2023-02-22T07:26:43;3.50;99.90
27759;DHT22;15148;48.972;12.794;2023-02-22T07:31:45;3.60;99.90
27759;DHT22;15148;48.972;12.794;2023-02-22T07:36:47;3.80;99.90
27759;DHT22;15148;48.972;12.794;2023-02-22T07:41:49;4.00;99.90
27759;DHT22;15148;48.972;12.794;2023-02-22T07:47:02;4.20;99.90
27759;DHT22;15148;48.972;12.794;2023-02-22T07:52:04;4.40;99.90
27759;DHT22;15148;48.972;12.794;2023-02-22T07:57:08;4.70;99.90
27759;DHT22;15148;48.972;12.794;2023-02-22T08:02:15;4.90;99.90
27759;DHT22;15148;48.972;12.794;2023-02-22T08:07:17;5.20;99.90
27759;DHT22;15148;48.972;12.794;2023-02-22T08:12:19;5.50;99.90
27759;DHT22;15148;48.972;12.794;2023-02-22T08:17:21;5.80;99.90
27759;DHT22;15148;48.972;12.794;2023-02-22T08:22:23;6.20;99.90
27759;DHT22;15148;48.972;12.794;2023-02-22T08:27:26;6.50;99.90
27759;DHT22;15148;48.972;12.794;2023-02-22T08:32:29;6.80;99.90
27759;DHT22;15148;48.972;12.794;2023-02-22T08:37:31;7.10;99.90
27759;DHT22;15148;48.972;12.794;2023-02-22T08:42:32;7.30;99.90
27759;DHT22;15148;48.972;12.794;2023-02-22T08:47:35;7.60;99.90
27759;DHT22;15148;48.972;12.794;2023-02-22T08:52:36;7.80;99.90
27759;DHT22;15148;48.972;12.794;2023-02-22T08:57:38;8.00;99.90
27759;DHT22;15148;48.972;12.794;2023-02-22T09:02:40;8.20;99.90
27759;DHT22;15148;48.972;12.794;2023-02-22T09:07:42;8.40;99.90
27759;DHT22;15148;48.972;12.794;2023-02-22T09:12:44;8.50;99.90
27759;DHT22;15148;48.972;12.794;2023-02-22T09:17:47;8.70;99.90
27759;DHT22;15148;48.972;12.794;2023-02-22T09:22:48;9.00;99.90
27759;DHT22;15148;48.972;12.794;2023-02-22T09:27:51;9.20;99.90
27759;DHT22;15148;48.972;12.794;2023-02-22T09:32:56;9.50;99.90
27759;DHT22;15148;48.972;12.794;2023-02-22T09:38:00;9.60;99.90
27759;DHT22;15148;48.972;12.794;2023-02-22T09:43:41;9.70;99.90
27759;DHT22;15148;48.972;12.794;2023-02-22T09:49:15;10.10;99.90
27759;DHT22;15148;48.972;12.794;2023-02-22T09:54:31;10.30;99.90
27759;DHT22;15148;48.972;12.794;2023-02-22T09:59:39;10.50;99.90
27759;DHT22;15148;48.972;12.794;2023-02-22T10:04:59;10.60;99.90
27759;DHT22;15148;48.972;12.794;2023-02-22T10:10:06;10.90;99.90
27759;DHT22;15148;48.972;12.794;2023-02-22T10:15:33;10.90;99.90
27759;DHT22;15148;48.972;12.794;2023-02-22T10:26:25;11.10;99.90
27759;DHT22;15148;48.972;12.794;2023-02-22T10:31:34;11.30;99.90
27759;DHT22;15148;48.972;12.794;2023-02-22T10:36:37;11.20;99.90
27759;DHT22;15148;48.972;12.794;2023-02-22T10:41:52;11.30;99.90
27759;DHT22;15148;48.972;12.794;2023-02-22T10:46:58;11.40;99.90
27759;DHT22;15148;48.972;12.794;2023-02-22T10:52:02;11.50;99.90
27759;DHT22;15148;48.972;12.794;2023-02-22T10:57:04;11.60;99.90
27759;DHT22;15148;48.972;12.794;2023-02-22T11:02:19;11.80;99.90
27759;DHT22;15148;48.972;12.794;2023-02-22T11:07:29;11.90;99.90
27759;DHT22;15148;48.972;12.794;2023-02-22T11:12:39;12.00;99.90
27759;DHT22;15148;48.972;12.794;2023-02-22T11:17:44;12.20;99.90
27759;DHT22;15148;48.972;12.794;2023-02-22T11:22:58;12.10;99.90
27759;DHT22;15148;48.972;12.794;2023-02-22T11:28:16;12.20;99.90
27759;DHT22;15148;48.972;12.794;2023-02-22T11:33:22;12.40;99.90
27759;DHT22;15148;48.972;12.794;2023-02-22T11:38:27;12.40;99.90
27759;DHT22;15148;48.972;12.794;2023-02-22T11:43:30;12.50;99.90
27759;DHT22;15148;48.972;12.794;2023-02-22T11:48:34;12.60;99.90
27759;DHT22;15148;48.972;12.794;2023-02-22T12:04:58;12.90;99.90
27759;DHT22;15148;48.972;12.794;2023-02-22T12:15:27;13.20;99.90
27759;DHT22;15148;48.972;12.794;2023-02-22T12:26:06;13.10;99.90
27759;DHT22;15148;48.972;12.794;2023-02-22T12:31:31;13.00;99.90
27759;DHT22;15148;48.972;12.794;2023-02-22T12:36:43;13.30;99.90
27759;DHT22;15148;48.972;12.794;2023-02-22T12:41:49;13.30;99.90
27759;DHT22;15148;48.972;12.794;2023-02-22T12:46:56;13.50;99.90
27759;DHT22;15148;48.972;12.794;2023-02-22T12:57:46;13.90;99.90
27759;DHT22;15148;48.972;12.794;2023-02-22T13:03:06;13.80;99.90
27759;DHT22;15148;48.972;12.794;2023-02-22T13:24:18;13.80;99.90
27759;DHT22;15148;48.972;12.794;2023-02-22T13:29:38;13.80;99.90
27759;DHT22;15148;48.972;12.794;2023-02-22T13:35:04;13.90;99.90
27759;DHT22;15148;48.972;12.794;2023-02-22T13:56:09;13.90;99.90
27759;DHT22;15148;48.972;12.794;2023-02-22T14:01:45;13.90;99.90
27759;DHT22;15148;48.972;12.794;2023-02-22T14:06:47;13.90;99.90
27759;DHT22;15148;48.972;12.794;2023-02-22T14:11:49;13.80;99.90
27759;DHT22;15148;48.972;12.794;2023-02-22T14:17:23;13.80;99.90
27759;DHT22;15148;48.972;12.794;2023-02-22T14:22:29;13.70;99.90
27759;DHT22;15148;48.972;12.794;2023-02-22T14:27:40;13.70;99.90
27759;DHT22;15148;48.972;12.794;2023-02-22T14:32:42;13.70;99.90
27759;DHT22;15148;48.972;12.794;2023-02-22T14:37:49;13.70;99.90
27759;DHT22;15148;48.972;12.794;2023-02-22T14:43:11;13.50;99.90
27759;DHT22;15148;48.972;12.794;2023-02-22T14:48:27;13.50;99.90
27759;DHT22;15148;48.972;12.794;2023-02-22T14:53:43;13.40;99.90
27759;DHT22;15148;48.972;12.794;2023-02-22T14:58:51;13.30;99.90
27759;DHT22;15148;48.972;12.794;2023-02-22T15:03:56;13.20;99.90
27759;DHT22;15148;48.972;12.794;2023-02-22T15:09:21;13.10;99.90
27759;DHT22;15148;48.972;12.794;2023-02-22T15:14:33;12.90;99.90
27759;DHT22;15148;48.972;12.794;2023-02-22T15:19:40;12.80;99.90
27759;DHT22;15148;48.972;12.794;2023-02-22T15:24:42;12.70;99.90
27759;DHT22;15148;48.972;12.794;2023-02-22T15:29:45;12.60;99.90
27759;DHT22;15148;48.972;12.794;2023-02-22T15:34:47;12.40;99.90
27759;DHT22;15148;48.972;12.794;2023-02-22T15:39:50;12.30;99.90
27759;DHT22;15148;48.972;12.794;2023-02-22T15:44:59;12.10;99.90
27759;DHT22;15148;48.972;12.794;2023-02-22T15:55:20;11.70;99.90
27759;DHT22;15148;48.972;12.794;2023-02-22T16:00:27;11.60;99.90
27759;DHT22;15148;48.972;12.794;2023-02-22T16:05:50;11.40;99.90
27759;DHT22;15148;48.972;12.794;2023-02-22T16:11:01;11.20;99.90
27759;DHT22;15148;48.972;12.794;2023-02-22T16:16:20;11.00;99.90
27759;DHT22;15148;48.972;12.794;2023-02-22T16:21:22;10.90;99.90
27759;DHT22;15148;48.972;12.794;2023-02-22T16:26:33;10.70;99.90
27759;DHT22;15148;48.972;12.794;2023-02-22T16:31:37;10.50;99.90
27759;DHT22;15148;48.972;12.794;2023-02-22T16:36:45;10.40;99.90
27759;DHT22;15148;48.972;12.794;2023-02-22T16:41:48;10.30;99.90
27759;DHT22;15148;48.972;12.794;2023-02-22T16:46:51;10.20;99.90
27759;DHT22;15148;48.972;12.794;2023-02-22T16:51:57;10.00;99.90
27759;DHT22;15148;48.972;12.794;2023-02-22T16:57:00;9.90;99.90
27759;DHT22;15148;48.972;12.794;2023-02-22T17:02:04;9.70;99.90
27759;DHT22;15148;48.972;12.794;2023-02-22T17:07:08;9.50;99.90
27759;DHT22;15148;48.972;12.794;2023-02-22T17:12:10;9.30;99.90
27759;DHT22;15148;48.972;12.794;2023-02-22T17:17:12;9.20;99.90
27759;DHT22;15148;48.972;12.794;2023-02-22T17:22:17;7.90;99.90
27759;DHT22;15148;48.972;12.794;2023-02-22T17:27:20;8.90;99.90
27759;DHT22;15148;48.972;12.794;2023-02-22T17:32:21;8.80;99.90
27759;DHT22;15148;48.972;12.794;2023-02-22T17:37:23;8.70;99.90
27759;DHT22;15148;48.972;12.794;2023-02-22T17:42:26;8.60;99.90
27759;DHT22;15148;48.972;12.794;2023-02-22T17:47:28;8.60;99.90
27759;DHT22;15148;48.972;12.794;2023-02-22T17:52:29;8.40;99.90
27759;DHT22;15148;48.972;12.794;2023-02-22T17:57:31;8.30;99.90
27759;DHT22;15148;48.972;12.794;2023-02-22T18:02:33;8.30;99.90
27759;DHT22;15148;48.972;12.794;2023-02-22T18:07:35;8.40;99.90
27759;DHT22;15148;48.972;12.794;2023-02-22T18:12:38;8.30;99.90
27759;DHT22;15148;48.972;12.794;2023-02-22T18:17:40;8.40;99.90
27759;DHT22;15148;48.972;12.794;2023-02-22T18:22:43;8.30;99.90
27759;DHT22;15148;48.972;12.794;2023-02-22T18:27:45;8.30;99.90
27759;DHT22;15148;48.972;12.794;2023-02-22T18:32:46;8.20;99.90
27759;DHT22;15148;48.972;12.794;2023-02-22T18:37:48;8.10;99.90
27759;DHT22;15148;48.972;12.794;2023-02-22T18:42:50;8.10;99.90
27759;DHT22;15148;48.972;12.794;2023-02-22T18:47:52;8.00;99.90
27759;DHT22;15148;48.972;12.794;2023-02-22T18:52:54;8.00;99.90
27759;DHT22;15148;48.972;12.794;2023-02-22T18:57:56;7.90;99.90
27759;DHT22;15148;48.972;12.794;2023-02-22T19:02:59;7.90;99.90
27759;DHT22;15148;48.972;12.794;2023-02-22T19:08:01;7.80;99.90
27759;DHT22;15148;48.972;12.794;2023-02-22T19:13:04;7.80;99.90
27759;DHT22;15148;48.972;12.794;2023-02-22T19:18:11;7.80;99.90
27759;DHT22;15148;48.972;12.794;2023-02-22T19:23:13;7.70;99.90
27759;DHT22;15148;48.972;12.794;2023-02-22T19:28:15;7.60;99.90
27759;DHT22;15148;48.972;12.794;2023-02-22T19:33:17;7.60;99.90
27759;DHT22;15148;48.972;12.794;2023-02-22T19:38:19;7.60;99.90
27759;DHT22;15148;48.972;12.794;2023-02-22T19:43:21;7.60;99.90
27759;DHT22;15148;48.972;12.794;2023-02-22T19:48:22;7.50;99.90
27759;DHT22;15148;48.972;12.794;2023-02-22T19:53:24;7.50;99.90
27759;DHT22;15148;48.972;12.794;2023-02-22T19:58:26;7.40;99.90
27759;DHT22;15148;48.972;12.794;2023-02-22T20:03:30;7.30;99.90
27759;DHT22;15148;48.972;12.794;2023-02-22T20:08:36;7.30;99.90
27759;DHT22;15148;48.972;12.794;2023-02-22T20:13:43;7.20;99.90
27759;DHT22;15148;48.972;12.794;2023-02-22T20:23:48;7.20;99.90
27759;DHT22;15148;48.972;12.794;2023-02-22T20:28:50;7.10;99.90
27759;DHT22;15148;48.972;12.794;2023-02-22T20:33:54;7.10;99.90
27759;DHT22;15148;48.972;12.794;2023-02-22T20:38:58;7.10;99.90
27759;DHT22;15148;48.972;12.794;2023-02-22T20:44:01;7.10;99.90
27759;DHT22;15148;48.972;12.794;2023-02-22T20:49:05;7.10;99.90
27759;DHT22;15148;48.972;12.794;2023-02-22T20:54:11;7.10;99.90
27759;DHT22;15148;48.972;12.794;2023-02-22T20:59:17;7.10;99.90
27759;DHT22;15148;48.972;12.794;2023-02-22T21:04:19;7.10;99.90
27759;DHT22;15148;48.972;12.794;2023-02-22T21:09:24;7.10;99.90
27759;DHT22;15148;48.972;12.794;2023-02-22T21:14:26;7.00;99.90
27759;DHT22;15148;48.972;12.794;2023-02-22T21:19:29;6.90;99.90
27759;DHT22;15148;48.972;12.794;2023-02-22T21:24:33;6.90;99.90
27759;DHT22;15148;48.972;12.794;2023-02-22T21:29:38;6.80;99.90
27759;DHT22;15148;48.972;12.794;2023-02-22T21:34:39;6.80;99.90
27759;DHT22;15148;48.972;12.794;2023-02-22T21:39:41;6.80;99.90
27759;DHT22;15148;48.972;12.794;2023-02-22T21:44:48;6.70;99.90
27759;DHT22;15148;48.972;12.794;2023-02-22T21:49:54;6.60;99.90
27759;DHT22;15148;48.972;12.794;2023-02-22T21:54:56;6.50;99.90
27759;DHT22;15148;48.972;12.794;2023-02-22T21:59:58;6.40;99.90
27759;DHT22;15148;48.972;12.794;2023-02-22T22:05:00;6.40;99.90
27759;DHT22;15148;48.972;12.794;2023-02-22T22:10:02;6.20;99.90
27759;DHT22;15148;48.972;12.794;2023-02-22T22:15:07;6.20;99.90
27759;DHT22;15148;48.972;12.794;2023-02-22T22:20:12;6.10;99.90
27759;DHT22;15148;48.972;12.794;2023-02-22T22:25:17;6.00;99.90
27759;DHT22;15148;48.972;12.794;2023-02-22T22:30:19;5.90;99.90
27759;DHT22;15148;48.972;12.794;2023-02-22T22:35:21;5.80;99.90
27759;DHT22;15148;48.972;12.794;2023-02-22T22:40:23;5.80;99.90
27759;DHT22;15148;48.972;12.794;2023-02-22T22:45:25;5.70;99.90
27759;DHT22;15148;48.972;12.794;2023-02-22T22:50:26;5.60;99.90
27759;DHT22;15148;48.972;12.794;2023-02-22T22:55:29;5.60;99.90
27759;DHT22;15148;48.972;12.794;2023-02-22T23:00:31;5.50;99.90
27759;DHT22;15148;48.972;12.794;2023-02-22T23:05:38;5.50;99.90
27759;DHT22;15148;48.972;12.794;2023-02-22T23:10:40;5.40;99.90
27759;DHT22;15148;48.972;12.794;2023-02-22T23:15:43;5.40;99.90
27759;DHT22;15148;48.972;12.794;2023-02-22T23:20:48;5.30;99.90
27759;DHT22;15148;48.972;12.794;2023-02-22T23:31:14;5.30;99.90
27759;DHT22;15148;48.972;12.794;2023-02-22T23:36:17;5.30;99.90
27759;DHT22;15148;48.972;12.794;2023-02-22T23:41:19;5.30;99.90
27759;DHT22;15148;48.972;12.794;2023-02-22T23:46:22;5.30;99.90
27759;DHT22;15148;48.972;12.794;2023-02-22T23:51:29;5.20;99.90
27759;DHT22;15148;48.972;12.794;2023-02-22T23:56:40;5.20;99.90
